sensor_id;sensor_type;location;lat;lon;timestamp;P1;durP1;ratioP1;P2;durP2;ratioP2
71973;SDS011;59840;52.122;5.404;2023-02-11T00:00:20;6.13;;;1.20;;
71973;SDS011;59840;52.122;5.404;2023-02-11T00:02:46;12.82;;;1.55;;
71973;SDS011;59840;52.122;5.404;2023-02-11T00:05:13;7.90;;;1.17;;
71973;SDS011;59840;52.122;5.404;2023-02-11T00:07:40;5.88;;;1.55;;
71973;SDS011;59840;52.122;5.404;2023-02-11T00:10:07;7.47;;;0.98;;
71973;SDS011;59840;52.122;5.404;2023-02-11T00:12:35;8.60;;;1.02;;
71973;SDS011;59840;52.122;5.404;2023-02-11T00:15:03;8.57;;;1.30;;
71973;SDS011;59840;52.122;5.404;2023-02-11T00:17:31;7.83;;;1.10;;
71973;SDS011;59840;52.122;5.404;2023-02-11T00:19:58;11.27;;;1.80;;
71973;SDS011;59840;52.122;5.404;2023-02-11T00:22:25;7.05;;;1.35;;
71973;SDS011;59840;52.122;5.404;2023-02-11T00:24:51;11.93;;;1.25;;
71973;SDS011;59840;52.122;5.404;2023-02-11T00:27:18;6.65;;;1.13;;
71973;SDS011;59840;52.122;5.404;2023-02-11T00:29:45;12.93;;;1.23;;
71973;SDS011;59840;52.122;5.404;2023-02-11T00:32:11;15.35;;;1.25;;
71973;SDS011;59840;52.122;5.404;2023-02-11T00:34:38;8.98;;;1.77;;
71973;SDS011;59840;52.122;5.404;2023-02-11T00:37:05;11.65;;;1.05;;
71973;SDS011;59840;52.122;5.404;2023-02-11T00:39:31;13.07;;;2.10;;
71973;SDS011;59840;52.122;5.404;2023-02-11T00:41:58;13.47;;;1.87;;
71973;SDS011;59840;52.122;5.404;2023-02-11T00:44:24;10.70;;;1.20;;
71973;SDS011;59840;52.122;5.404;2023-02-11T00:46:51;9.52;;;1.58;;
71973;SDS011;59840;52.122;5.404;2023-02-11T00:49:18;13.30;;;1.98;;
71973;SDS011;59840;52.122;5.404;2023-02-11T00:51:44;5.13;;;1.70;;
71973;SDS011;59840;52.122;5.404;2023-02-11T00:54:11;10.27;;;1.07;;
71973;SDS011;59840;52.122;5.404;2023-02-11T00:56:37;9.52;;;1.52;;
71973;SDS011;59840;52.122;5.404;2023-02-11T00:59:04;10.25;;;2.22;;
71973;SDS011;59840;52.122;5.404;2023-02-11T01:01:31;8.43;;;1.35;;
71973;SDS011;59840;52.122;5.404;2023-02-11T01:03:58;7.97;;;1.42;;
71973;SDS011;59840;52.122;5.404;2023-02-11T01:06:25;9.10;;;1.40;;
71973;SDS011;59840;52.122;5.404;2023-02-11T01:08:51;8.25;;;1.45;;
71973;SDS011;59840;52.122;5.404;2023-02-11T01:11:18;8.25;;;1.10;;
71973;SDS011;59840;52.122;5.404;2023-02-11T01:13:47;6.32;;;1.45;;
71973;SDS011;59840;52.122;5.404;2023-02-11T01:16:15;9.23;;;1.20;;
71973;SDS011;59840;52.122;5.404;2023-02-11T01:18:43;10.40;;;1.70;;
71973;SDS011;59840;52.122;5.404;2023-02-11T01:21:09;6.03;;;1.10;;
71973;SDS011;59840;52.122;5.404;2023-02-11T01:23:37;10.27;;;1.13;;
71973;SDS011;59840;52.122;5.404;2023-02-11T01:26:03;6.85;;;1.05;;
71973;SDS011;59840;52.122;5.404;2023-02-11T01:28:30;5.47;;;1.55;;
71973;SDS011;59840;52.122;5.404;2023-02-11T01:30:58;7.03;;;1.77;;
71973;SDS011;59840;52.122;5.404;2023-02-11T01:33:26;12.93;;;1.67;;
71973;SDS011;59840;52.122;5.404;2023-02-11T01:35:52;11.70;;;1.63;;
71973;SDS011;59840;52.122;5.404;2023-02-11T01:38:20;9.57;;;2.22;;
71973;SDS011;59840;52.122;5.404;2023-02-11T01:41:02;8.88;;;1.90;;
71973;SDS011;59840;52.122;5.404;2023-02-11T01:43:33;10.00;;;1.80;;
71973;SDS011;59840;52.122;5.404;2023-02-11T01:48:52;13.82;;;2.38;;
71973;SDS011;59840;52.122;5.404;2023-02-11T01:51:24;7.72;;;1.63;;
71973;SDS011;59840;52.122;5.404;2023-02-11T01:53:54;13.85;;;2.00;;
71973;SDS011;59840;52.122;5.404;2023-02-11T01:56:41;6.80;;;1.23;;
71973;SDS011;59840;52.122;5.404;2023-02-11T01:59:37;8.65;;;1.67;;
71973;SDS011;59840;52.122;5.404;2023-02-11T02:02:09;10.00;;;2.13;;
71973;SDS011;59840;52.122;5.404;2023-02-11T02:04:43;8.60;;;1.60;;
71973;SDS011;59840;52.122;5.404;2023-02-11T02:07:16;14.07;;;2.10;;
71973;SDS011;59840;52.122;5.404;2023-02-11T02:09:56;9.63;;;1.80;;
71973;SDS011;59840;52.122;5.404;2023-02-11T02:12:27;9.20;;;1.75;;
71973;SDS011;59840;52.122;5.404;2023-02-11T02:15:09;8.65;;;1.50;;
71973;SDS011;59840;52.122;5.404;2023-02-11T02:18:00;7.75;;;1.55;;
71973;SDS011;59840;52.122;5.404;2023-02-11T02:21:01;10.93;;;2.10;;
71973;SDS011;59840;52.122;5.404;2023-02-11T02:34:53;7.32;;;1.20;;
71973;SDS011;59840;52.122;5.404;2023-02-11T02:40:41;7.13;;;1.48;;
71973;SDS011;59840;52.122;5.404;2023-02-11T02:43:13;10.13;;;1.73;;
71973;SDS011;59840;52.122;5.404;2023-02-11T02:45:41;10.43;;;1.90;;
71973;SDS011;59840;52.122;5.404;2023-02-11T02:48:27;7.43;;;1.65;;
71973;SDS011;59840;52.122;5.404;2023-02-11T02:53:45;11.90;;;2.30;;
71973;SDS011;59840;52.122;5.404;2023-02-11T03:01:56;10.43;;;1.98;;
71973;SDS011;59840;52.122;5.404;2023-02-11T03:04:35;5.47;;;2.03;;
71973;SDS011;59840;52.122;5.404;2023-02-11T03:07:13;11.48;;;2.17;;
71973;SDS011;59840;52.122;5.404;2023-02-11T03:09:50;6.22;;;1.55;;
71973;SDS011;59840;52.122;5.404;2023-02-11T03:12:23;13.18;;;2.42;;
71973;SDS011;59840;52.122;5.404;2023-02-11T03:14:53;10.52;;;2.30;;
71973;SDS011;59840;52.122;5.404;2023-02-11T03:17:19;16.57;;;2.23;;
71973;SDS011;59840;52.122;5.404;2023-02-11T03:19:48;10.38;;;1.73;;
71973;SDS011;59840;52.122;5.404;2023-02-11T03:22:19;13.25;;;2.10;;
71973;SDS011;59840;52.122;5.404;2023-02-11T03:24:50;6.10;;;1.65;;
71973;SDS011;59840;52.122;5.404;2023-02-11T03:27:20;9.63;;;2.08;;
71973;SDS011;59840;52.122;5.404;2023-02-11T03:29:54;11.07;;;1.93;;
71973;SDS011;59840;52.122;5.404;2023-02-11T03:32:28;8.40;;;2.47;;
71973;SDS011;59840;52.122;5.404;2023-02-11T03:35:12;6.50;;;1.90;;
71973;SDS011;59840;52.122;5.404;2023-02-11T03:37:50;6.20;;;2.38;;
71973;SDS011;59840;52.122;5.404;2023-02-11T03:40:22;8.25;;;2.53;;
71973;SDS011;59840;52.122;5.404;2023-02-11T03:42:53;10.30;;;2.60;;
71973;SDS011;59840;52.122;5.404;2023-02-11T03:45:23;6.35;;;2.38;;
71973;SDS011;59840;52.122;5.404;2023-02-11T03:47:58;9.80;;;2.72;;
71973;SDS011;59840;52.122;5.404;2023-02-11T03:50:27;15.07;;;2.42;;
71973;SDS011;59840;52.122;5.404;2023-02-11T03:52:57;14.07;;;3.00;;
71973;SDS011;59840;52.122;5.404;2023-02-11T03:55:26;10.63;;;3.20;;
71973;SDS011;59840;52.122;5.404;2023-02-11T03:57:55;12.05;;;2.78;;
71973;SDS011;59840;52.122;5.404;2023-02-11T04:00:28;9.38;;;3.10;;
71973;SDS011;59840;52.122;5.404;2023-02-11T04:02:56;12.88;;;3.60;;
71973;SDS011;59840;52.122;5.404;2023-02-11T04:05:22;16.25;;;4.03;;
71973;SDS011;59840;52.122;5.404;2023-02-11T04:07:49;10.73;;;3.00;;
71973;SDS011;59840;52.122;5.404;2023-02-11T04:10:15;10.13;;;3.08;;
71973;SDS011;59840;52.122;5.404;2023-02-11T04:12:42;11.85;;;3.17;;
71973;SDS011;59840;52.122;5.404;2023-02-11T04:15:09;9.55;;;2.78;;
71973;SDS011;59840;52.122;5.404;2023-02-11T04:17:36;7.22;;;2.85;;
71973;SDS011;59840;52.122;5.404;2023-02-11T04:20:02;14.43;;;3.60;;
71973;SDS011;59840;52.122;5.404;2023-02-11T04:22:30;14.75;;;3.15;;
71973;SDS011;59840;52.122;5.404;2023-02-11T04:24:56;8.30;;;3.20;;
71973;SDS011;59840;52.122;5.404;2023-02-11T04:27:23;14.57;;;2.95;;
71973;SDS011;59840;52.122;5.404;2023-02-11T04:29:50;14.02;;;3.78;;
71973;SDS011;59840;52.122;5.404;2023-02-11T04:32:16;14.60;;;4.07;;
71973;SDS011;59840;52.122;5.404;2023-02-11T04:34:42;18.38;;;3.83;;
71973;SDS011;59840;52.122;5.404;2023-02-11T04:37:09;15.88;;;4.35;;
71973;SDS011;59840;52.122;5.404;2023-02-11T04:39:36;13.95;;;4.15;;
71973;SDS011;59840;52.122;5.404;2023-02-11T04:42:02;13.35;;;4.53;;
71973;SDS011;59840;52.122;5.404;2023-02-11T04:44:29;12.57;;;3.93;;
71973;SDS011;59840;52.122;5.404;2023-02-11T04:46:56;15.40;;;4.65;;
71973;SDS011;59840;52.122;5.404;2023-02-11T04:49:22;17.40;;;4.30;;
71973;SDS011;59840;52.122;5.404;2023-02-11T04:51:49;16.13;;;4.57;;
71973;SDS011;59840;52.122;5.404;2023-02-11T04:54:15;14.00;;;4.78;;
71973;SDS011;59840;52.122;5.404;2023-02-11T04:56:42;14.90;;;5.17;;
71973;SDS011;59840;52.122;5.404;2023-02-11T04:59:09;10.80;;;5.32;;
71973;SDS011;59840;52.122;5.404;2023-02-11T05:01:36;17.98;;;4.93;;
71973;SDS011;59840;52.122;5.404;2023-02-11T05:04:03;15.98;;;5.22;;
71973;SDS011;59840;52.122;5.404;2023-02-11T05:06:30;15.35;;;5.45;;
71973;SDS011;59840;52.122;5.404;2023-02-11T05:08:56;14.10;;;5.03;;
71973;SDS011;59840;52.122;5.404;2023-02-11T05:11:24;15.60;;;5.25;;
71973;SDS011;59840;52.122;5.404;2023-02-11T05:13:51;16.33;;;5.82;;
71973;SDS011;59840;52.122;5.404;2023-02-11T05:16:18;19.75;;;5.72;;
71973;SDS011;59840;52.122;5.404;2023-02-11T05:18:45;16.92;;;5.15;;
71973;SDS011;59840;52.122;5.404;2023-02-11T05:21:13;17.00;;;5.10;;
71973;SDS011;59840;52.122;5.404;2023-02-11T05:23:42;16.88;;;6.53;;
71973;SDS011;59840;52.122;5.404;2023-02-11T05:26:09;14.60;;;5.25;;
71973;SDS011;59840;52.122;5.404;2023-02-11T05:28:36;12.18;;;4.72;;
71973;SDS011;59840;52.122;5.404;2023-02-11T05:31:03;19.88;;;5.28;;
71973;SDS011;59840;52.122;5.404;2023-02-11T05:33:30;20.50;;;5.60;;
71973;SDS011;59840;52.122;5.404;2023-02-11T05:35:58;14.70;;;5.80;;
71973;SDS011;59840;52.122;5.404;2023-02-11T05:38:25;12.27;;;5.10;;
71973;SDS011;59840;52.122;5.404;2023-02-11T05:40:52;25.70;;;6.20;;
71973;SDS011;59840;52.122;5.404;2023-02-11T05:43:19;16.42;;;5.47;;
71973;SDS011;59840;52.122;5.404;2023-02-11T05:45:46;17.73;;;5.33;;
71973;SDS011;59840;52.122;5.404;2023-02-11T05:48:13;13.27;;;5.60;;
71973;SDS011;59840;52.122;5.404;2023-02-11T05:50:39;19.23;;;6.03;;
71973;SDS011;59840;52.122;5.404;2023-02-11T05:53:06;13.48;;;5.10;;
71973;SDS011;59840;52.122;5.404;2023-02-11T05:55:33;16.50;;;5.75;;
71973;SDS011;59840;52.122;5.404;2023-02-11T05:57:59;16.83;;;6.00;;
71973;SDS011;59840;52.122;5.404;2023-02-11T06:00:26;19.15;;;6.05;;
71973;SDS011;59840;52.122;5.404;2023-02-11T06:02:53;19.05;;;6.50;;
71973;SDS011;59840;52.122;5.404;2023-02-11T06:05:20;18.23;;;6.22;;
71973;SDS011;59840;52.122;5.404;2023-02-11T06:07:46;14.77;;;5.93;;
71973;SDS011;59840;52.122;5.404;2023-02-11T06:10:13;16.33;;;6.33;;
71973;SDS011;59840;52.122;5.404;2023-02-11T06:12:40;18.10;;;6.45;;
71973;SDS011;59840;52.122;5.404;2023-02-11T06:15:06;14.32;;;5.90;;
71973;SDS011;59840;52.122;5.404;2023-02-11T06:17:33;19.67;;;7.20;;
71973;SDS011;59840;52.122;5.404;2023-02-11T06:20:03;20.85;;;6.43;;
71973;SDS011;59840;52.122;5.404;2023-02-11T06:22:32;15.07;;;6.47;;
71973;SDS011;59840;52.122;5.404;2023-02-11T06:25:00;19.35;;;6.82;;
71973;SDS011;59840;52.122;5.404;2023-02-11T06:27:27;18.35;;;7.03;;
71973;SDS011;59840;52.122;5.404;2023-02-11T06:29:55;18.02;;;6.25;;
71973;SDS011;59840;52.122;5.404;2023-02-11T06:32:21;17.02;;;6.13;;
71973;SDS011;59840;52.122;5.404;2023-02-11T06:35:08;22.73;;;6.67;;
71973;SDS011;59840;52.122;5.404;2023-02-11T06:37:37;14.95;;;6.60;;
71973;SDS011;59840;52.122;5.404;2023-02-11T06:40:04;12.90;;;6.72;;
71973;SDS011;59840;52.122;5.404;2023-02-11T06:42:31;19.23;;;6.85;;
71973;SDS011;59840;52.122;5.404;2023-02-11T06:44:57;16.23;;;6.50;;
71973;SDS011;59840;52.122;5.404;2023-02-11T06:47:24;18.40;;;6.87;;
71973;SDS011;59840;52.122;5.404;2023-02-11T06:49:50;16.75;;;6.88;;
71973;SDS011;59840;52.122;5.404;2023-02-11T06:52:17;17.45;;;6.75;;
71973;SDS011;59840;52.122;5.404;2023-02-11T06:54:43;19.35;;;6.68;;
71973;SDS011;59840;52.122;5.404;2023-02-11T06:57:10;19.10;;;7.43;;
71973;SDS011;59840;52.122;5.404;2023-02-11T06:59:36;20.43;;;7.10;;
71973;SDS011;59840;52.122;5.404;2023-02-11T07:02:03;19.33;;;6.35;;
71973;SDS011;59840;52.122;5.404;2023-02-11T07:04:30;16.63;;;7.45;;
71973;SDS011;59840;52.122;5.404;2023-02-11T07:06:56;21.13;;;8.07;;
71973;SDS011;59840;52.122;5.404;2023-02-11T07:09:23;19.80;;;8.05;;
71973;SDS011;59840;52.122;5.404;2023-02-11T07:11:49;22.33;;;8.03;;
71973;SDS011;59840;52.122;5.404;2023-02-11T07:14:15;25.25;;;7.93;;
71973;SDS011;59840;52.122;5.404;2023-02-11T07:16:42;16.98;;;7.55;;
71973;SDS011;59840;52.122;5.404;2023-02-11T07:19:09;20.85;;;7.63;;
71973;SDS011;59840;52.122;5.404;2023-02-11T07:21:35;19.05;;;7.25;;
71973;SDS011;59840;52.122;5.404;2023-02-11T07:24:05;24.83;;;8.10;;
71973;SDS011;59840;52.122;5.404;2023-02-11T07:26:36;17.92;;;7.55;;
71973;SDS011;59840;52.122;5.404;2023-02-11T07:29:02;18.08;;;7.65;;
71973;SDS011;59840;52.122;5.404;2023-02-11T07:31:29;16.75;;;8.00;;
71973;SDS011;59840;52.122;5.404;2023-02-11T07:33:57;20.15;;;8.05;;
71973;SDS011;59840;52.122;5.404;2023-02-11T07:36:26;24.90;;;8.27;;
71973;SDS011;59840;52.122;5.404;2023-02-11T07:38:54;21.00;;;8.27;;
71973;SDS011;59840;52.122;5.404;2023-02-11T07:41:21;26.13;;;7.88;;
71973;SDS011;59840;52.122;5.404;2023-02-11T07:43:49;22.10;;;8.20;;
71973;SDS011;59840;52.122;5.404;2023-02-11T07:46:23;21.45;;;8.00;;
71973;SDS011;59840;52.122;5.404;2023-02-11T07:48:52;19.37;;;7.97;;
71973;SDS011;59840;52.122;5.404;2023-02-11T07:51:20;21.38;;;7.65;;
71973;SDS011;59840;52.122;5.404;2023-02-11T07:53:48;20.55;;;8.40;;
71973;SDS011;59840;52.122;5.404;2023-02-11T07:56:15;22.55;;;8.30;;
71973;SDS011;59840;52.122;5.404;2023-02-11T07:58:43;22.27;;;8.48;;
71973;SDS011;59840;52.122;5.404;2023-02-11T08:01:11;16.53;;;8.50;;
71973;SDS011;59840;52.122;5.404;2023-02-11T08:03:39;22.27;;;8.50;;
71973;SDS011;59840;52.122;5.404;2023-02-11T08:06:12;19.10;;;8.02;;
71973;SDS011;59840;52.122;5.404;2023-02-11T08:08:40;20.23;;;8.02;;
71973;SDS011;59840;52.122;5.404;2023-02-11T08:11:08;19.75;;;7.88;;
71973;SDS011;59840;52.122;5.404;2023-02-11T08:13:40;21.67;;;7.77;;
71973;SDS011;59840;52.122;5.404;2023-02-11T08:16:07;21.80;;;8.10;;
71973;SDS011;59840;52.122;5.404;2023-02-11T08:18:35;30.27;;;9.60;;
71973;SDS011;59840;52.122;5.404;2023-02-11T08:21:05;21.85;;;10.18;;
71973;SDS011;59840;52.122;5.404;2023-02-11T08:23:37;25.05;;;12.38;;
71973;SDS011;59840;52.122;5.404;2023-02-11T08:26:05;25.43;;;8.60;;
71973;SDS011;59840;52.122;5.404;2023-02-11T08:28:37;19.55;;;8.38;;
71973;SDS011;59840;52.122;5.404;2023-02-11T08:31:09;21.92;;;9.10;;
71973;SDS011;59840;52.122;5.404;2023-02-11T08:33:37;18.85;;;8.02;;
71973;SDS011;59840;52.122;5.404;2023-02-11T08:36:09;25.90;;;9.70;;
71973;SDS011;59840;52.122;5.404;2023-02-11T08:38:41;24.07;;;8.77;;
71973;SDS011;59840;52.122;5.404;2023-02-11T08:41:08;19.20;;;8.48;;
71973;SDS011;59840;52.122;5.404;2023-02-11T08:43:35;18.58;;;8.60;;
71973;SDS011;59840;52.122;5.404;2023-02-11T08:46:02;20.52;;;8.50;;
71973;SDS011;59840;52.122;5.404;2023-02-11T08:48:30;20.92;;;8.55;;
71973;SDS011;59840;52.122;5.404;2023-02-11T08:50:58;19.33;;;8.47;;
71973;SDS011;59840;52.122;5.404;2023-02-11T08:53:24;23.55;;;8.93;;
71973;SDS011;59840;52.122;5.404;2023-02-11T08:55:52;25.58;;;8.10;;
71973;SDS011;59840;52.122;5.404;2023-02-11T08:58:20;23.05;;;8.57;;
71973;SDS011;59840;52.122;5.404;2023-02-11T09:00:47;22.08;;;8.80;;
71973;SDS011;59840;52.122;5.404;2023-02-11T09:03:15;24.93;;;8.40;;
71973;SDS011;59840;52.122;5.404;2023-02-11T09:05:42;21.80;;;8.50;;
71973;SDS011;59840;52.122;5.404;2023-02-11T09:08:09;17.88;;;7.63;;
71973;SDS011;59840;52.122;5.404;2023-02-11T09:10:37;16.23;;;7.88;;
71973;SDS011;59840;52.122;5.404;2023-02-11T09:13:04;18.45;;;8.18;;
71973;SDS011;59840;52.122;5.404;2023-02-11T09:15:31;16.70;;;7.90;;
71973;SDS011;59840;52.122;5.404;2023-02-11T09:17:58;16.50;;;7.88;;
71973;SDS011;59840;52.122;5.404;2023-02-11T09:20:25;16.88;;;7.85;;
71973;SDS011;59840;52.122;5.404;2023-02-11T09:22:52;18.10;;;8.43;;
71973;SDS011;59840;52.122;5.404;2023-02-11T09:25:21;20.00;;;8.27;;
71973;SDS011;59840;52.122;5.404;2023-02-11T09:27:48;20.57;;;8.30;;
71973;SDS011;59840;52.122;5.404;2023-02-11T09:30:16;17.30;;;7.10;;
71973;SDS011;59840;52.122;5.404;2023-02-11T09:32:43;13.98;;;7.65;;
71973;SDS011;59840;52.122;5.404;2023-02-11T09:35:09;19.42;;;8.25;;
71973;SDS011;59840;52.122;5.404;2023-02-11T09:37:36;17.15;;;8.25;;
71973;SDS011;59840;52.122;5.404;2023-02-11T09:40:03;17.97;;;7.83;;
71973;SDS011;59840;52.122;5.404;2023-02-11T09:45:14;18.58;;;7.65;;
71973;SDS011;59840;52.122;5.404;2023-02-11T09:47:59;15.63;;;7.55;;
71973;SDS011;59840;52.122;5.404;2023-02-11T09:50:32;13.02;;;7.10;;
71973;SDS011;59840;52.122;5.404;2023-02-11T09:53:24;13.30;;;7.30;;
71973;SDS011;59840;52.122;5.404;2023-02-11T09:56:01;14.93;;;7.10;;
71973;SDS011;59840;52.122;5.404;2023-02-11T09:58:37;15.98;;;7.05;;
71973;SDS011;59840;52.122;5.404;2023-02-11T10:20:19;11.10;;;6.10;;
71973;SDS011;59840;52.122;5.404;2023-02-11T10:22:57;10.57;;;6.15;;
71973;SDS011;59840;52.122;5.404;2023-02-11T10:25:27;12.18;;;6.78;;
71973;SDS011;59840;52.122;5.404;2023-02-11T10:28:00;15.27;;;6.50;;
71973;SDS011;59840;52.122;5.404;2023-02-11T10:30:36;14.55;;;6.72;;
71973;SDS011;59840;52.122;5.404;2023-02-11T10:33:22;17.93;;;6.67;;
71973;SDS011;59840;52.122;5.404;2023-02-11T10:35:52;13.65;;;5.75;;
71973;SDS011;59840;52.122;5.404;2023-02-11T10:38:18;13.52;;;6.43;;
71973;SDS011;59840;52.122;5.404;2023-02-11T10:40:45;11.18;;;5.43;;
71973;SDS011;59840;52.122;5.404;2023-02-11T10:43:13;9.55;;;5.85;;
71973;SDS011;59840;52.122;5.404;2023-02-11T10:45:43;11.97;;;5.57;;
71973;SDS011;59840;52.122;5.404;2023-02-11T10:51:06;13.85;;;6.35;;
71973;SDS011;59840;52.122;5.404;2023-02-11T10:53:39;11.18;;;5.50;;
71973;SDS011;59840;52.122;5.404;2023-02-11T10:56:06;11.50;;;6.22;;
71973;SDS011;59840;52.122;5.404;2023-02-11T10:58:39;15.10;;;6.40;;
71973;SDS011;59840;52.122;5.404;2023-02-11T11:01:10;12.63;;;5.82;;
71973;SDS011;59840;52.122;5.404;2023-02-11T11:03:50;10.40;;;6.38;;
71973;SDS011;59840;52.122;5.404;2023-02-11T11:06:27;11.23;;;5.97;;
71973;SDS011;59840;52.122;5.404;2023-02-11T11:08:57;12.82;;;5.70;;
71973;SDS011;59840;52.122;5.404;2023-02-11T11:11:24;12.60;;;5.67;;
71973;SDS011;59840;52.122;5.404;2023-02-11T11:16:23;10.93;;;5.47;;
71973;SDS011;59840;52.122;5.404;2023-02-11T11:21:45;14.32;;;6.00;;
71973;SDS011;59840;52.122;5.404;2023-02-11T11:24:16;8.97;;;5.27;;
71973;SDS011;59840;52.122;5.404;2023-02-11T11:26:55;10.80;;;5.47;;
71973;SDS011;59840;52.122;5.404;2023-02-11T11:29:36;8.93;;;5.45;;
71973;SDS011;59840;52.122;5.404;2023-02-11T11:34:53;9.05;;;4.78;;
71973;SDS011;59840;52.122;5.404;2023-02-11T11:37:26;12.00;;;5.20;;
71973;SDS011;59840;52.122;5.404;2023-02-11T11:40:06;7.53;;;5.15;;
71973;SDS011;59840;52.122;5.404;2023-02-11T11:42:34;9.90;;;4.57;;
71973;SDS011;59840;52.122;5.404;2023-02-11T11:53:13;8.82;;;4.53;;
71973;SDS011;59840;52.122;5.404;2023-02-11T11:55:47;8.30;;;3.83;;
71973;SDS011;59840;52.122;5.404;2023-02-11T11:58:21;8.75;;;4.38;;
71973;SDS011;59840;52.122;5.404;2023-02-11T12:15:17;8.80;;;3.65;;
71973;SDS011;59840;52.122;5.404;2023-02-11T12:23:54;4.03;;;3.03;;
71973;SDS011;59840;52.122;5.404;2023-02-11T12:26:34;2.70;;;1.98;;
71973;SDS011;59840;52.122;5.404;2023-02-11T12:29:22;7.43;;;3.17;;
71973;SDS011;59840;52.122;5.404;2023-02-11T12:40:08;5.72;;;3.45;;
71973;SDS011;59840;52.122;5.404;2023-02-11T12:51:28;4.00;;;3.08;;
71973;SDS011;59840;52.122;5.404;2023-02-11T12:59:39;3.60;;;2.67;;
71973;SDS011;59840;52.122;5.404;2023-02-11T13:02:11;4.35;;;2.92;;
71973;SDS011;59840;52.122;5.404;2023-02-11T13:04:45;3.60;;;2.22;;
71973;SDS011;59840;52.122;5.404;2023-02-11T13:07:18;2.65;;;1.65;;
71973;SDS011;59840;52.122;5.404;2023-02-11T13:09:54;5.13;;;2.65;;
71973;SDS011;59840;52.122;5.404;2023-02-11T13:12:27;3.73;;;2.70;;
71973;SDS011;59840;52.122;5.404;2023-02-11T13:15:16;4.35;;;2.58;;
71973;SDS011;59840;52.122;5.404;2023-02-11T13:17:45;6.18;;;2.95;;
71973;SDS011;59840;52.122;5.404;2023-02-11T13:20:25;8.10;;;2.88;;
71973;SDS011;59840;52.122;5.404;2023-02-11T13:23:15;3.95;;;2.50;;
71973;SDS011;59840;52.122;5.404;2023-02-11T13:25:54;3.93;;;2.43;;
71973;SDS011;59840;52.122;5.404;2023-02-11T13:28:32;4.15;;;2.20;;
71973;SDS011;59840;52.122;5.404;2023-02-11T13:31:06;5.60;;;3.05;;
71973;SDS011;59840;52.122;5.404;2023-02-11T13:33:36;6.05;;;3.20;;
71973;SDS011;59840;52.122;5.404;2023-02-11T13:36:12;6.03;;;3.05;;
71973;SDS011;59840;52.122;5.404;2023-02-11T13:38:49;4.97;;;2.90;;
71973;SDS011;59840;52.122;5.404;2023-02-11T13:44:00;5.55;;;3.10;;
71973;SDS011;59840;52.122;5.404;2023-02-11T13:49:34;11.65;;;2.83;;
71973;SDS011;59840;52.122;5.404;2023-02-11T13:52:17;2.90;;;2.40;;
71973;SDS011;59840;52.122;5.404;2023-02-11T13:54:49;3.92;;;2.50;;
71973;SDS011;59840;52.122;5.404;2023-02-11T13:59:46;4.50;;;2.70;;
71973;SDS011;59840;52.122;5.404;2023-02-11T14:10:52;7.50;;;2.90;;
71973;SDS011;59840;52.122;5.404;2023-02-11T14:21:29;6.68;;;3.08;;
71973;SDS011;59840;52.122;5.404;2023-02-11T14:29:23;6.05;;;2.97;;
71973;SDS011;59840;52.122;5.404;2023-02-11T14:32:05;5.13;;;2.50;;
71973;SDS011;59840;52.122;5.404;2023-02-11T14:40:29;4.80;;;3.03;;
71973;SDS011;59840;52.122;5.404;2023-02-11T14:43:11;5.60;;;3.08;;
71973;SDS011;59840;52.122;5.404;2023-02-11T14:45:42;4.17;;;2.63;;
71973;SDS011;59840;52.122;5.404;2023-02-11T14:48:14;3.70;;;2.92;;
71973;SDS011;59840;52.122;5.404;2023-02-11T14:50:43;4.65;;;2.70;;
71973;SDS011;59840;52.122;5.404;2023-02-11T14:53:18;6.03;;;2.45;;
71973;SDS011;59840;52.122;5.404;2023-02-11T14:55:48;4.22;;;2.58;;
71973;SDS011;59840;52.122;5.404;2023-02-11T15:00:58;3.05;;;2.45;;
71973;SDS011;59840;52.122;5.404;2023-02-11T15:03:35;6.38;;;2.60;;
71973;SDS011;59840;52.122;5.404;2023-02-11T15:08:34;3.22;;;2.50;;
71973;SDS011;59840;52.122;5.404;2023-02-11T15:11:07;4.27;;;2.63;;
71973;SDS011;59840;52.122;5.404;2023-02-11T15:13:37;4.00;;;2.20;;
71973;SDS011;59840;52.122;5.404;2023-02-11T15:16:05;6.00;;;2.72;;
71973;SDS011;59840;52.122;5.404;2023-02-11T15:18:38;5.93;;;3.05;;
71973;SDS011;59840;52.122;5.404;2023-02-11T15:21:07;6.63;;;2.20;;
71973;SDS011;59840;52.122;5.404;2023-02-11T15:23:35;4.20;;;2.40;;
71973;SDS011;59840;52.122;5.404;2023-02-11T15:26:02;3.50;;;2.15;;
71973;SDS011;59840;52.122;5.404;2023-02-11T15:28:43;5.63;;;2.63;;
71973;SDS011;59840;52.122;5.404;2023-02-11T15:31:14;6.90;;;2.78;;
71973;SDS011;59840;52.122;5.404;2023-02-11T15:33:42;4.18;;;2.72;;
71973;SDS011;59840;52.122;5.404;2023-02-11T15:36:10;3.90;;;2.43;;
71973;SDS011;59840;52.122;5.404;2023-02-11T15:38:40;5.05;;;2.65;;
71973;SDS011;59840;52.122;5.404;2023-02-11T15:41:07;3.63;;;2.20;;
71973;SDS011;59840;52.122;5.404;2023-02-11T15:43:54;4.25;;;2.78;;
71973;SDS011;59840;52.122;5.404;2023-02-11T15:46:21;6.22;;;2.83;;
71973;SDS011;59840;52.122;5.404;2023-02-11T15:48:52;5.70;;;2.87;;
71973;SDS011;59840;52.122;5.404;2023-02-11T15:51:29;7.95;;;2.80;;
71973;SDS011;59840;52.122;5.404;2023-02-11T15:54:01;5.10;;;2.95;;
71973;SDS011;59840;52.122;5.404;2023-02-11T15:56:33;5.70;;;2.45;;
71973;SDS011;59840;52.122;5.404;2023-02-11T15:59:09;5.00;;;2.60;;
71973;SDS011;59840;52.122;5.404;2023-02-11T16:01:42;5.53;;;2.40;;
71973;SDS011;59840;52.122;5.404;2023-02-11T16:04:21;8.18;;;2.65;;
71973;SDS011;59840;52.122;5.404;2023-02-11T16:06:52;4.28;;;2.78;;
71973;SDS011;59840;52.122;5.404;2023-02-11T16:09:22;5.15;;;2.63;;
71973;SDS011;59840;52.122;5.404;2023-02-11T16:16:50;4.45;;;2.78;;
71973;SDS011;59840;52.122;5.404;2023-02-11T16:19:19;4.18;;;2.40;;
71973;SDS011;59840;52.122;5.404;2023-02-11T16:21:50;3.95;;;2.10;;
71973;SDS011;59840;52.122;5.404;2023-02-11T16:24:26;5.45;;;2.78;;
71973;SDS011;59840;52.122;5.404;2023-02-11T16:27:29;3.27;;;1.87;;
71973;SDS011;59840;52.122;5.404;2023-02-11T16:29:55;4.88;;;2.10;;
71973;SDS011;59840;52.122;5.404;2023-02-11T16:32:24;4.65;;;2.40;;
71973;SDS011;59840;52.122;5.404;2023-02-11T16:34:55;5.60;;;2.60;;
71973;SDS011;59840;52.122;5.404;2023-02-11T16:37:24;6.40;;;2.67;;
71973;SDS011;59840;52.122;5.404;2023-02-11T16:39:54;3.60;;;2.13;;
71973;SDS011;59840;52.122;5.404;2023-02-11T16:42:21;5.68;;;2.47;;
71973;SDS011;59840;52.122;5.404;2023-02-11T16:44:49;4.63;;;2.40;;
71973;SDS011;59840;52.122;5.404;2023-02-11T16:47:18;4.65;;;2.65;;
71973;SDS011;59840;52.122;5.404;2023-02-11T16:49:48;6.00;;;2.35;;
71973;SDS011;59840;52.122;5.404;2023-02-11T16:52:15;4.50;;;2.67;;
71973;SDS011;59840;52.122;5.404;2023-02-11T16:54:45;4.32;;;2.33;;
71973;SDS011;59840;52.122;5.404;2023-02-11T16:59:42;6.22;;;2.90;;
71973;SDS011;59840;52.122;5.404;2023-02-11T17:05:04;4.33;;;2.23;;
71973;SDS011;59840;52.122;5.404;2023-02-11T17:07:33;5.72;;;2.63;;
71973;SDS011;59840;52.122;5.404;2023-02-11T17:09:59;8.38;;;3.35;;
71973;SDS011;59840;52.122;5.404;2023-02-11T17:12:26;5.82;;;3.20;;
71973;SDS011;59840;52.122;5.404;2023-02-11T17:14:52;7.13;;;3.47;;
71973;SDS011;59840;52.122;5.404;2023-02-11T17:17:19;8.17;;;4.30;;
71973;SDS011;59840;52.122;5.404;2023-02-11T17:19:48;6.78;;;3.90;;
71973;SDS011;59840;52.122;5.404;2023-02-11T17:22:16;6.28;;;3.22;;
71973;SDS011;59840;52.122;5.404;2023-02-11T17:24:43;4.38;;;2.67;;
71973;SDS011;59840;52.122;5.404;2023-02-11T17:27:10;4.38;;;3.40;;
71973;SDS011;59840;52.122;5.404;2023-02-11T17:29:37;7.63;;;3.10;;
71973;SDS011;59840;52.122;5.404;2023-02-11T17:32:03;5.78;;;3.50;;
71973;SDS011;59840;52.122;5.404;2023-02-11T17:34:30;9.23;;;3.80;;
71973;SDS011;59840;52.122;5.404;2023-02-11T17:36:57;7.07;;;3.10;;
71973;SDS011;59840;52.122;5.404;2023-02-11T17:39:25;6.55;;;3.50;;